»·PEaware :: SWA121 KSFO-KGEG

SWA121 :: KSFO-KGEG

FLIGHT INFORMATION

Flight Status: Arrived
Operator:
Southwest Airlines
More flights by this operator :: More flights under this callsign
Pilot: Chris C. (17159)
Aircraft: BOEING 737-800
(B738)
More flights by this aircraft type
Origin: KSFO San Francisco Intl
United States
Destination: KGEG Spokane Intl
United States
More flights between these airports :: More routes between these airports
Route: TRUKN2 DEDHD LKV J3 GEG
File this flight plan on PilotEdge
Remarks:
Altitude:
(Current/Filed)
35,000ft
Speed:
(Current/Filed)
400kts
Departed: 18-Jun-18 04:34 PM
Arrived: 18-Jun-18 06:20 PM
Distance/Time
Traveled:
637nm/1:46
Distance/Time
To Go:
Arrived

Flight Plot

Page will automatically refresh every two minutes.

Flight plan parsing failed; only flown route is shown


Map Options




Map Legend


Flown Route
Filed Route
Departure Airport
Arrival Airport
Navaid (VOR, NDB)
Fix

Horizontal Profiles

Position Reports

Time Latitude Longitude Heading Altitude Ground
Speed
18-Jun-18 16:08 37.612636 -122.384669 6 16ft 0kts
18-Jun-18 16:09 37.612636 -122.384669 6 16ft 0kts
18-Jun-18 16:10 37.612636 -122.384669 6 16ft 0kts
18-Jun-18 16:11 37.612636 -122.384669 6 16ft 0kts
18-Jun-18 16:12 37.612636 -122.384669 6 16ft 0kts
18-Jun-18 16:13 37.612636 -122.384669 6 16ft 0kts
18-Jun-18 16:14 37.612636 -122.384669 6 16ft 0kts
18-Jun-18 16:15 37.612636 -122.384669 6 16ft 0kts
18-Jun-18 16:16 37.612636 -122.384669 6 16ft 0kts
18-Jun-18 16:17 37.612636 -122.384669 6 16ft 0kts
18-Jun-18 16:18 37.612636 -122.384669 6 16ft 0kts
18-Jun-18 16:19 37.612636 -122.384669 6 16ft 0kts
18-Jun-18 16:20 37.612636 -122.384669 6 16ft 0kts
18-Jun-18 16:21 37.612636 -122.384669 6 16ft 0kts
18-Jun-18 16:22 37.612636 -122.384669 6 16ft 0kts
18-Jun-18 16:23 37.612636 -122.384669 6 16ft 0kts
18-Jun-18 16:24 37.612555 -122.384680 6 16ft 2kts
18-Jun-18 16:25 37.611962 -122.384760 6 16ft 2kts
18-Jun-18 16:26 37.611368 -122.384861 35 16ft 2kts
18-Jun-18 16:27 37.611250 -122.385120 75 16ft 0kts
18-Jun-18 16:28 37.611250 -122.385120 75 16ft 0kts
18-Jun-18 16:29 37.611255 -122.385095 74 16ft 0kts
18-Jun-18 16:30 37.611345 -122.384701 73 16ft 2kts
18-Jun-18 16:31 37.609530 -122.384564 214 16ft 0kts
18-Jun-18 16:32 37.608523 -122.383976 118 16ft 0kts
18-Jun-18 16:33 37.608202 -122.383207 105 16ft 8kts
18-Jun-18 16:34 37.632001 -122.365883 26 441ft 184kts
18-Jun-18 16:35 37.670131 -122.309092 56 2603ft 258kts
18-Jun-18 16:36 37.709295 -122.231046 45 5796ft 271kts
18-Jun-18 16:37 37.779517 -122.203578 6 8770ft 278kts
18-Jun-18 16:38 37.857910 -122.190835 6 11064ft 309kts
18-Jun-18 16:39 37.944017 -122.176752 4 13686ft 324kts
18-Jun-18 16:40 38.034806 -122.161897 3 16156ft 338kts
18-Jun-18 16:41 38.122791 -122.147490 3 18246ft 351kts
18-Jun-18 16:42 38.219289 -122.131630 2 20456ft 360kts
18-Jun-18 16:43 38.319128 -122.115204 1 22543ft 367kts
18-Jun-18 16:44 38.403317 -122.089256 9 24051ft 381kts
18-Jun-18 16:45 38.523794 -122.043670 9 25941ft 394kts
18-Jun-18 16:46 38.606393 -122.011895 9 27091ft 403kts
18-Jun-18 16:47 38.712220 -121.971037 8 28432ft 413kts
18-Jun-18 16:48 38.822382 -121.928413 8 29981ft 414kts
18-Jun-18 16:49 38.913521 -121.893108 7 31198ft 413kts
18-Jun-18 16:50 39.041503 -121.843572 6 32704ft 412kts
18-Jun-18 16:51 39.126777 -121.810570 6 33601ft 411kts
18-Jun-18 16:52 39.234763 -121.768780 5 34633ft 411kts
18-Jun-18 16:53 39.364319 -121.718865 6 35026ft 434kts
18-Jun-18 16:54 39.460746 -121.681627 6 35015ft 452kts
18-Jun-18 16:55 39.578390 -121.635984 6 35015ft 451kts
18-Jun-18 16:56 39.683323 -121.595345 6 34997ft 452kts
18-Jun-18 16:57 39.797870 -121.550997 7 34989ft 448kts
18-Jun-18 16:58 39.914913 -121.505702 6 34993ft 448kts
18-Jun-18 16:59 40.033583 -121.459767 7 34997ft 448kts
18-Jun-18 17:00 40.141475 -121.418023 6 35000ft 448kts
18-Jun-18 17:01 40.259059 -121.372517 6 34999ft 448kts
18-Jun-18 17:02 40.368900 -121.330011 8 35091ft 446kts
18-Jun-18 17:03 40.486753 -121.284370 8 35141ft 445kts
18-Jun-18 17:04 40.604796 -121.238692 7 35139ft 446kts
18-Jun-18 17:05 40.723386 -121.192804 7 35094ft 445kts
18-Jun-18 17:06 40.838181 -121.148414 9 35127ft 445kts
18-Jun-18 17:07 40.956271 -121.102740 9 35121ft 445kts
18-Jun-18 17:08 41.074030 -121.057146 9 35204ft 443kts
18-Jun-18 17:09 41.182525 -121.015202 9 35207ft 444kts
18-Jun-18 17:10 41.299351 -120.969945 10 35207ft 440kts
18-Jun-18 17:11 41.412523 -120.926190 10 35216ft 441kts
18-Jun-18 17:12 41.511827 -120.887775 10 35193ft 439kts
18-Jun-18 17:13 41.612182 -120.848937 10 35205ft 441kts
18-Jun-18 17:14 41.707286 -120.812099 10 35202ft 441kts
18-Jun-18 17:15 41.802030 -120.775509 12 35196ft 436kts
18-Jun-18 17:16 41.886605 -120.742776 12 35216ft 437kts
18-Jun-18 17:17 41.973754 -120.709076 12 35223ft 438kts
18-Jun-18 17:18 42.055372 -120.677441 12 35207ft 437kts
18-Jun-18 17:19 42.128999 -120.648933 11 35223ft 437kts
18-Jun-18 17:20 42.204736 -120.619665 12 35212ft 438kts
18-Jun-18 17:21 42.278110 -120.591283 13 35222ft 439kts
18-Jun-18 17:22 42.360414 -120.559442 13 35222ft 433kts
18-Jun-18 17:23 42.470317 -120.516910 13 35221ft 431kts
18-Jun-18 17:24 42.547811 -120.488271 12 35220ft 431kts
18-Jun-18 17:25 42.641099 -120.454629 12 35219ft 431kts
18-Jun-18 17:26 42.745858 -120.416364 12 35219ft 431kts
18-Jun-18 17:27 42.850453 -120.377883 13 35222ft 422kts
18-Jun-18 17:28 42.951526 -120.340542 14 35216ft 422kts
18-Jun-18 17:29 43.060485 -120.300173 14 35215ft 422kts
18-Jun-18 17:30 43.165200 -120.261414 14 35222ft 422kts
18-Jun-18 17:31 43.275212 -120.220724 15 35158ft 423kts
18-Jun-18 17:32 43.375352 -120.183694 15 35157ft 422kts
18-Jun-18 17:33 43.477474 -120.145898 15 35156ft 421kts
18-Jun-18 17:34 43.582822 -120.106921 15 35155ft 422kts
18-Jun-18 17:35 43.690665 -120.067025 15 35124ft 422kts
18-Jun-18 17:36 43.800030 -120.026583 15 35158ft 427kts
18-Jun-18 17:37 43.909999 -119.985908 15 35128ft 425kts
18-Jun-18 17:38 44.020481 -119.945030 15 35126ft 426kts
18-Jun-18 17:39 44.118071 -119.908920 15 35156ft 426kts
18-Jun-18 17:40 44.223351 -119.869970 15 35156ft 426kts
18-Jun-18 17:41 44.336842 -119.827985 16 35155ft 431kts
18-Jun-18 17:42 44.451582 -119.785528 16 35164ft 430kts
18-Jun-18 17:43 44.565276 -119.743452 16 35162ft 431kts
18-Jun-18 17:44 44.676740 -119.696388 26 35184ft 428kts
18-Jun-18 17:45 44.779717 -119.623061 28 33534ft 424kts
18-Jun-18 17:46 44.884661 -119.547516 29 30163ft 431kts
18-Jun-18 17:47 44.991113 -119.470949 28 26506ft 436kts
18-Jun-18 17:48 45.096392 -119.395291 27 24108ft 433kts
18-Jun-18 17:49 45.182980 -119.333091 27 24098ft 437kts
18-Jun-18 17:50 45.271397 -119.269540 27 24093ft 438kts
18-Jun-18 17:51 45.366084 -119.201550 28 24092ft 438kts
18-Jun-18 17:52 45.461953 -119.132733 27 23356ft 429kts
18-Jun-18 17:53 45.566292 -119.057814 27 20205ft 415kts
18-Jun-18 17:54 45.664801 -118.987093 27 17324ft 399kts
18-Jun-18 17:55 45.760121 -118.918692 27 14482ft 387kts
18-Jun-18 17:56 45.851295 -118.853281 27 12073ft 366kts
18-Jun-18 17:57 45.938974 -118.790371 26 9972ft 344kts
18-Jun-18 17:58 46.025089 -118.728655 26 9973ft 360kts
18-Jun-18 17:59 46.111904 -118.666490 26 9972ft 363kts
18-Jun-18 18:00 46.201407 -118.602414 26 9972ft 363kts
18-Jun-18 18:01 46.290320 -118.538786 26 9968ft 350kts
18-Jun-18 18:02 46.376992 -118.476758 26 9981ft 353kts
18-Jun-18 18:03 46.463805 -118.414658 26 9980ft 353kts
18-Jun-18 18:04 46.551559 -118.351907 26 9979ft 353kts
18-Jun-18 18:05 46.632252 -118.294145 27 9981ft 353kts
18-Jun-18 18:06 46.717949 -118.232857 27 9983ft 361kts
18-Jun-18 18:07 46.806250 -118.169757 26 9983ft 353kts
18-Jun-18 18:08 46.894138 -118.106967 26 9989ft 354kts
18-Jun-18 18:09 46.981386 -118.044659 26 9993ft 348kts
18-Jun-18 18:10 47.067814 -117.982941 26 9994ft 347kts
18-Jun-18 18:11 47.149724 -117.924468 26 10001ft 347kts
18-Jun-18 18:12 47.232533 -117.865368 26 7947ft 336kts
18-Jun-18 18:13 47.315001 -117.806515 26 6011ft 328kts
18-Jun-18 18:14 47.388270 -117.754247 26 5983ft 266kts
18-Jun-18 18:15 47.448565 -117.711234 26 5977ft 219kts
18-Jun-18 18:16 47.500114 -117.674426 26 5312ft 198kts
18-Jun-18 18:17 47.543293 -117.643583 27 3764ft 157kts
18-Jun-18 18:18 47.575242 -117.602570 46 3220ft 158kts
18-Jun-18 18:19 47.606540 -117.555539 45 2540ft 160kts
18-Jun-18 18:20 47.626971 -117.524608 65 2349ft 19kts
18-Jun-18 18:21 47.626400 -117.523226 135 2347ft 0kts
18-Jun-18 18:22 47.626379 -117.523195 135 2347ft 0kts
18-Jun-18 18:23 47.626213 -117.522895 115 2348ft 7kts
18-Jun-18 18:24 47.629315 -117.517653 44 2332ft 11kts
18-Jun-18 18:25 47.631943 -117.519526 314 2328ft 11kts
18-Jun-18 18:26 47.631282 -117.522213 224 2336ft 6kts
18-Jun-18 18:27 47.630035 -117.524070 224 2345ft 9kts
18-Jun-18 18:28 47.626917 -117.528775 224 2351ft 20kts
18-Jun-18 18:29 47.623967 -117.533372 256 2359ft 4kts
18-Jun-18 18:30 47.623269 -117.535848 234 2362ft 9kts
18-Jun-18 18:31 47.624090 -117.537151 42 2364ft 4kts
18-Jun-18 18:32 47.624205 -117.536725 81 2363ft 0kts
18-Jun-18 18:33 47.624205 -117.536726 81 2363ft 0kts
18-Jun-18 18:34 47.624205 -117.536726 81 2363ft 0kts

Navigation Log

Ident Type
Flight plan parsing failed, navigation log unavailable